createdAt,value
2018-11-28T00:03:13.298Z,3.66
2018-11-28T00:09:08.323Z,3.62
2018-11-28T00:15:03.305Z,4.31
2018-11-28T00:20:58.314Z,4.23
2018-11-28T00:26:53.293Z,4.12
2018-11-28T00:32:48.308Z,4.4
2018-11-28T00:38:43.354Z,3.65
2018-11-28T00:44:38.334Z,2.73
2018-11-28T00:50:33.309Z,2.89
2018-11-28T00:56:28.345Z,3.72
2018-11-28T01:02:23.339Z,4
2018-11-28T01:08:18.344Z,3.66
2018-11-28T01:14:13.354Z,3.58
2018-11-28T01:20:08.358Z,3.46
2018-11-28T01:26:03.403Z,3.51
2018-11-28T01:31:58.367Z,3.23
2018-11-28T01:37:53.379Z,2.88
2018-11-28T01:43:48.353Z,3.08
2018-11-28T01:49:43.357Z,2.77
2018-11-28T01:55:38.367Z,2.67
2018-11-28T02:01:33.376Z,2.5
2018-11-28T02:07:28.385Z,3.05
2018-11-28T02:13:23.408Z,2.91
2018-11-28T02:19:18.399Z,3.17
2018-11-28T02:25:13.503Z,2.81
2018-11-28T02:31:08.418Z,2.93
2018-11-28T02:37:03.406Z,3.79
2018-11-28T02:42:58.437Z,2.45
2018-11-28T02:48:53.438Z,2.97
2018-11-28T02:54:48.419Z,2.74
2018-11-28T03:00:43.417Z,2.98
2018-11-28T03:06:38.416Z,2.64
2018-11-28T03:12:33.432Z,2.92
2018-11-28T03:18:28.440Z,2.77
2018-11-28T03:24:23.451Z,3.1
2018-11-28T03:30:18.437Z,2.75
2018-11-28T03:36:13.472Z,2.78
2018-11-28T03:42:08.494Z,2.77
2018-11-28T03:48:03.502Z,2.76
2018-11-28T03:53:58.481Z,3.18
2018-11-28T03:59:53.507Z,3.78
2018-11-28T04:05:48.523Z,5.17
2018-11-28T04:11:43.488Z,3.92
2018-11-28T04:17:38.506Z,4.06
2018-11-28T04:23:33.485Z,3.57
2018-11-28T04:29:28.513Z,3.34
2018-11-28T04:35:23.516Z,3.95
2018-11-28T04:41:18.551Z,3.36
2018-11-28T04:47:14.184Z,3.19
2018-11-28T04:53:08.547Z,3.91
2018-11-28T04:59:03.528Z,2.57
2018-11-28T05:04:58.547Z,3.53
2018-11-28T05:10:53.534Z,3.57
2018-11-28T05:16:48.557Z,3.5
2018-11-28T05:22:43.540Z,2.66
2018-11-28T05:28:38.557Z,3.24
2018-11-28T05:34:33.553Z,3.47
2018-11-28T05:40:28.646Z,3.58
2018-11-28T05:46:23.566Z,3.8
2018-11-28T05:52:18.570Z,4.38
2018-11-28T05:58:13.575Z,4.9
2018-11-28T06:04:08.576Z,4.72
2018-11-28T06:10:03.620Z,4.72
2018-11-28T06:15:58.602Z,4.37
2018-11-28T06:21:53.624Z,4.43
2018-11-28T06:27:48.650Z,4.29
2018-11-28T06:33:43.615Z,3.88
2018-11-28T06:39:38.661Z,5.11
2018-11-28T06:45:33.610Z,4.5
2018-11-28T06:51:28.626Z,4.73
2018-11-28T06:57:23.709Z,4.49
2018-11-28T07:03:18.634Z,5.05
2018-11-28T07:09:13.643Z,5.03
2018-11-28T07:15:08.643Z,5.68
2018-11-28T07:21:03.676Z,6.16
2018-11-28T07:26:58.648Z,4.73
2018-11-28T07:32:53.643Z,5.11
2018-11-28T07:38:48.652Z,3.74
2018-11-28T07:44:43.672Z,4.44
2018-11-28T07:50:38.679Z,4.11
2018-11-28T07:56:33.712Z,3.73
2018-11-28T08:02:28.679Z,3.39
2018-11-28T08:08:23.686Z,3.85
2018-11-28T08:14:18.705Z,4.45
2018-11-28T08:20:13.737Z,4.11
2018-11-28T08:26:08.688Z,3.64
2018-11-28T08:32:03.767Z,4.21
2018-11-28T08:37:58.700Z,3.85
2018-11-28T08:43:53.715Z,4.34
2018-11-28T08:49:48.756Z,4.18
2018-11-28T08:55:43.705Z,4.11
2018-11-28T09:01:38.737Z,4.1
2018-11-28T09:07:33.743Z,3.65
2018-11-28T09:13:28.734Z,4.24
2018-11-28T09:19:23.764Z,3.74
2018-11-28T09:25:18.782Z,3.96
2018-11-28T09:31:13.758Z,4.06
2018-11-28T09:37:08.765Z,3.65
2018-11-28T09:43:03.756Z,4.02
2018-11-28T09:48:58.845Z,3.6
2018-11-28T09:54:53.773Z,3.27
2018-11-28T10:00:48.786Z,3.51
2018-11-28T10:06:43.786Z,3.77
2018-11-28T10:12:38.788Z,3.74
2018-11-28T10:18:33.792Z,3.95
2018-11-28T10:24:28.830Z,3.62
2018-11-28T10:30:23.849Z,3.61
2018-11-28T10:36:18.832Z,3.69
2018-11-28T10:42:13.824Z,4.07
2018-11-28T10:48:08.852Z,4.26
2018-11-28T10:54:03.819Z,3.78
2018-11-28T10:59:58.825Z,4.13
2018-11-28T11:05:54.201Z,4.2
2018-11-28T11:11:48.865Z,4.55
2018-11-28T11:17:43.830Z,3.28
2018-11-28T11:23:38.845Z,4.38
2018-11-28T11:29:33.846Z,4.07
2018-11-28T11:35:28.885Z,5.13
2018-11-28T11:41:23.888Z,3.61
2018-11-28T11:47:18.887Z,3.8
2018-11-28T11:53:13.891Z,3.2
2018-11-28T11:59:08.871Z,3.73
2018-11-28T12:05:03.881Z,3.72
2018-11-28T12:10:58.894Z,4.66
2018-11-28T12:16:53.893Z,4.27
2018-11-28T12:22:48.925Z,3.99
2018-11-28T12:28:43.911Z,4.98
2018-11-28T12:34:38.899Z,3.89
2018-11-28T12:40:33.915Z,5.54
2018-11-28T12:46:28.927Z,4.18
2018-11-28T12:52:23.937Z,3.59
2018-11-28T12:58:18.938Z,4.23
2018-11-28T13:04:13.957Z,3.74
2018-11-28T13:10:08.943Z,3.79
2018-11-28T13:16:03.981Z,3.86
2018-11-28T13:21:58.989Z,4.19
2018-11-28T13:27:53.982Z,4.42
2018-11-28T13:33:48.975Z,4.26
2018-11-28T13:39:43.965Z,3.86
2018-11-28T13:45:39.000Z,4.61
2018-11-28T13:51:33.984Z,4.52
2018-11-28T13:57:28.999Z,5.6
2018-11-28T14:03:23.997Z,4.43
2018-11-28T14:09:19.039Z,4.3
2018-11-28T14:15:13.994Z,4.86
2018-11-28T14:21:09.005Z,6.7
2018-11-28T14:27:04.039Z,5.34
2018-11-28T14:32:59.026Z,4.35
2018-11-28T14:38:54.082Z,4.44
2018-11-28T14:44:49.084Z,4.75
2018-11-28T14:50:44.071Z,4.85
2018-11-28T14:56:39.103Z,5.21
2018-11-28T15:02:34.100Z,4.98
2018-11-28T15:08:29.052Z,4.7
2018-11-28T15:14:24.068Z,4.86
2018-11-28T15:20:19.063Z,5.88
2018-11-28T15:26:14.087Z,4.84
2018-11-28T15:32:09.086Z,5.2
2018-11-28T15:38:04.076Z,5.59
2018-11-28T15:43:59.079Z,5.71
2018-11-28T15:49:54.080Z,5
2018-11-28T15:55:49.083Z,5.79
2018-11-28T16:01:44.123Z,4.77
2018-11-28T16:07:39.198Z,5.77
2018-11-28T16:13:34.124Z,8.03
2018-11-28T16:19:29.113Z,5.57
2018-11-28T16:25:24.175Z,8.49
2018-11-28T16:31:19.168Z,6.01
2018-11-28T16:37:14.161Z,5.35
2018-11-28T16:43:09.127Z,5.31
2018-11-28T16:49:04.140Z,5.16
2018-11-28T16:54:59.161Z,5.5
2018-11-28T17:00:54.153Z,5.34
2018-11-28T17:06:49.168Z,4.65
2018-11-28T17:12:44.143Z,5.18
2018-11-28T17:18:39.165Z,4.91
2018-11-28T17:24:34.153Z,4.27
2018-11-28T17:30:29.188Z,4.45
2018-11-28T17:36:24.198Z,4.33
2018-11-28T17:42:19.185Z,3.58
2018-11-28T17:48:14.187Z,3.34
2018-11-28T17:54:09.207Z,4.24
2018-11-28T18:00:04.216Z,4.04
2018-11-28T18:05:59.211Z,4.61
2018-11-28T18:11:54.252Z,3.6
2018-11-28T18:17:49.303Z,3.73
2018-11-28T18:23:44.231Z,4.18
2018-11-28T18:29:39.232Z,3.48
2018-11-28T18:35:34.239Z,3.63
2018-11-28T18:41:29.343Z,4.05
2018-11-28T18:47:24.259Z,3.53
2018-11-28T18:53:19.306Z,4.41
2018-11-28T18:59:14.260Z,2.97
2018-11-28T19:05:09.275Z,3.44
2018-11-28T19:11:04.326Z,3.36
2018-11-28T19:16:59.277Z,4
2018-11-28T19:22:54.330Z,3.83
2018-11-28T19:28:49.282Z,3.96
2018-11-28T19:34:44.344Z,3.53
2018-11-28T19:40:39.296Z,4.62
2018-11-28T19:46:34.318Z,3.87
2018-11-28T19:52:29.326Z,5.96
2018-11-28T19:58:24.348Z,4.1
2018-11-28T20:04:19.308Z,3.81
2018-11-28T20:10:14.369Z,4.12
2018-11-28T20:16:09.357Z,4.56
2018-11-28T20:22:04.514Z,4.06
2018-11-28T20:27:59.356Z,3.54
2018-11-28T20:33:54.352Z,3.77
2018-11-28T20:39:49.337Z,3.33
2018-11-28T20:45:44.364Z,3.3
2018-11-28T20:51:39.367Z,3.34
2018-11-28T20:57:34.381Z,3.85
2018-11-28T21:03:29.349Z,5.48
2018-11-28T21:09:24.391Z,3.69
2018-11-28T21:15:19.387Z,3.35
2018-11-28T21:21:14.445Z,3.74
2018-11-28T21:27:09.386Z,3.64
2018-11-28T21:33:04.440Z,3.19
2018-11-28T21:38:59.396Z,3.79
2018-11-28T21:44:54.412Z,3.12
2018-11-28T21:50:49.429Z,3.8
2018-11-28T21:56:44.437Z,3.67
2018-11-28T22:02:39.424Z,3.67
2018-11-28T22:08:34.430Z,3.72
2018-11-28T22:14:29.426Z,4.46
2018-11-28T22:20:24.455Z,4.08
2018-11-28T22:26:19.493Z,4.62
2018-11-28T22:32:14.436Z,4.14
2018-11-28T22:38:09.476Z,3.79
2018-11-28T22:44:04.526Z,4.27
2018-11-28T22:49:59.466Z,3.36
2018-11-28T22:55:54.453Z,3.59
2018-11-28T23:01:49.501Z,2.88
2018-11-28T23:07:44.470Z,3.63
2018-11-28T23:13:39.499Z,3.02
2018-11-28T23:19:34.525Z,3.28
2018-11-28T23:25:29.513Z,2.57
2018-11-28T23:31:24.535Z,3.3
2018-11-28T23:37:19.512Z,2.87
2018-11-28T23:43:14.492Z,2.86
2018-11-28T23:49:09.545Z,2.7
2018-11-28T23:55:04.568Z,3.23
